Time;durP1;ratioP1;P1;durP2;ratioP2;P2;SDS_P1;SDS_P2;PMS_P1;PMS_P2;Temp;Humidity;BMP_temperature;BMP_pressure;BME280_temperature;BME280_humidity;BME280_pressure;Samples;Min_cycle;Max_cycle;Signal;HPM_P1;HPM_P2
2022/11/04 00:01:46;;;;;;;0.90;0.90;;;;;;;12.84;100.00;100295.81;5113124;28;20201;-72
2022/11/04 00:04:17;;;;;;;1.00;1.00;;;;;;;12.57;100.00;100259.13;5112870;28;20237;-73
2022/11/04 00:06:44;;;;;;;0.80;0.80;;;;;;;12.68;100.00;100308.66;5072795;28;20199;-72
2022/11/04 00:09:13;;;;;;;0.93;0.93;;;;;;;12.45;100.00;100277.22;5088957;28;20198;-72
2022/11/04 00:14:24;;;;;;;0.90;0.90;;;;;;;12.29;100.00;100301.31;5112316;28;20366;-73
2022/11/04 00:30:38;;;;;;;0.70;0.70;;;;;;;12.03;100.00;100275.00;5068210;28;20220;-73
2022/11/04 00:35:51;;;;;;;0.75;0.75;;;;;;;11.96;100.00;100248.91;4994960;28;20206;-72
2022/11/04 00:38:19;;;;;;;0.80;0.80;;;;;;;11.97;100.00;100263.66;5049858;28;20207;-72
2022/11/04 00:40:45;;;;;;;1.05;1.05;;;;;;;11.99;100.00;100278.41;5061189;28;20209;-72
2022/11/04 00:43:12;;;;;;;0.90;0.90;;;;;;;12.03;100.00;100277.59;5067387;28;20194;-72
2022/11/04 00:45:41;;;;;;;0.80;0.80;;;;;;;12.02;100.00;100268.06;5067152;28;20199;-72
2022/11/04 00:48:08;;;;;;;0.70;0.70;;;;;;;11.97;100.00;100274.94;5069631;28;20750;-72
2022/11/04 00:50:35;;;;;;;0.80;0.80;;;;;;;11.91;100.00;100275.72;5054870;28;20236;-72
2022/11/04 00:53:04;;;;;;;0.88;0.88;;;;;;;12.09;100.00;100280.31;5054544;28;20227;-72
2022/11/04 00:55:31;;;;;;;1.27;1.27;;;;;;;12.00;100.00;100280.16;5068645;28;20583;-72
2022/11/04 00:57:58;;;;;;;3.40;2.70;;;;;;;11.97;100.00;100277.53;5069034;28;20222;-72
2022/11/04 01:00:25;;;;;;;0.80;0.80;;;;;;;11.85;100.00;100274.78;5060935;28;20269;-72
2022/11/04 01:02:52;;;;;;;0.80;0.80;;;;;;;11.82;100.00;100272.13;5049238;28;20199;-72
2022/11/04 01:05:19;;;;;;;0.88;0.88;;;;;;;11.82;100.00;100264.34;5079749;28;20237;-72
2022/11/04 01:07:46;;;;;;;0.80;0.80;;;;;;;11.80;100.00;100266.06;5091909;28;20209;-72
2022/11/04 01:10:14;;;;;;;0.80;0.80;;;;;;;11.89;100.00;100263.56;5097487;28;20203;-72
2022/11/04 01:12:41;;;;;;;0.70;0.70;;;;;;;11.79;100.00;100244.41;5091797;28;20202;-72
2022/11/04 01:15:08;;;;;;;0.65;0.65;;;;;;;11.83;100.00;100241.00;5080417;28;20229;-72
2022/11/04 01:17:35;;;;;;;0.80;0.80;;;;;;;11.75;100.00;100233.94;5109574;28;20209;-72
2022/11/04 01:20:02;;;;;;;0.95;0.95;;;;;;;11.81;100.00;100254.78;5092052;28;20193;-72
2022/11/04 01:22:29;;;;;;;0.77;0.77;;;;;;;11.78;100.00;100255.63;5039271;28;20264;-72
2022/11/04 01:24:56;;;;;;;0.77;0.77;;;;;;;11.79;100.00;100253.91;5102329;28;20209;-72
2022/11/04 01:27:24;;;;;;;0.80;0.80;;;;;;;11.96;100.00;100247.19;5075606;28;20205;-72
2022/11/04 01:29:51;;;;;;;0.90;0.90;;;;;;;11.83;100.00;100246.19;5107727;28;20190;-72
2022/11/04 01:32:17;;;;;;;0.90;0.90;;;;;;;11.85;100.00;100233.19;5099862;28;20641;-72
2022/11/04 01:34:45;;;;;;;0.80;0.80;;;;;;;11.87;100.00;100236.72;5111624;28;20736;-72
2022/11/04 01:37:12;;;;;;;0.85;0.85;;;;;;;11.78;100.00;100234.84;5111526;28;20205;-72
2022/11/04 01:39:39;;;;;;;0.80;0.80;;;;;;;11.60;100.00;100211.22;5092589;28;20224;-72
2022/11/04 01:42:06;;;;;;;0.80;0.80;;;;;;;11.19;100.00;100137.13;5091283;28;20202;-72
2022/11/04 01:44:58;;;;;;;0.80;0.80;;;;;;;11.84;100.00;100221.94;5066105;28;20205;-72
2022/11/04 01:47:30;;;;;;;0.90;0.90;;;;;;;11.84;100.00;100221.09;5108379;28;20201;-72
2022/11/04 01:50:03;;;;;;;0.80;0.80;;;;;;;11.86;100.00;100211.56;5091373;28;20202;-73
2022/11/04 01:52:36;;;;;;;0.80;0.80;;;;;;;11.82;100.00;100208.06;5104613;28;20665;-72
2022/11/04 01:55:09;;;;;;;0.80;0.80;;;;;;;11.83;100.00;100203.75;5091333;28;20214;-72
2022/11/04 01:57:39;;;;;;;0.90;0.90;;;;;;;11.85;100.00;100212.41;5091246;28;20194;-72
2022/11/04 02:00:11;;;;;;;0.82;0.82;;;;;;;11.91;100.00;100197.78;5091097;28;20891;-72
2022/11/04 02:02:47;;;;;;;0.80;0.80;;;;;;;11.88;100.00;100207.25;5106707;28;20674;-72
2022/11/04 02:05:14;;;;;;;1.00;1.00;;;;;;;11.75;100.00;100213.16;5095324;28;20610;-72
2022/11/04 02:07:41;;;;;;;0.90;0.90;;;;;;;11.74;100.00;100214.88;5092034;28;20194;-72
2022/11/04 02:10:09;;;;;;;0.80;0.80;;;;;;;11.67;100.00;100191.38;5091259;28;20198;-72
2022/11/04 02:12:51;;;;;;;1.00;1.00;;;;;;;11.69;100.00;100210.47;5070726;28;20202;-72
2022/11/04 02:15:30;;;;;;;0.85;0.85;;;;;;;11.72;100.00;100192.34;5109377;28;20217;-72
2022/11/04 02:18:12;;;;;;;0.80;0.80;;;;;;;11.64;100.00;100179.25;5110004;28;20665;-72
2022/11/04 02:20:59;;;;;;;1.48;1.48;;;;;;;11.80;100.00;100198.53;5102328;28;20209;-72
2022/11/04 02:24:06;;;;;;;1.00;1.00;;;;;;;11.81;100.00;100200.25;5100789;28;20207;-72
2022/11/04 02:27:08;;;;;;;0.80;0.80;;;;;;;11.77;100.00;100195.91;5018372;28;20255;-72
2022/11/04 02:30:00;;;;;;;0.88;0.88;;;;;;;11.74;100.00;100195.81;4998064;28;20204;-73
2022/11/04 02:32:37;;;;;;;0.90;0.90;;;;;;;11.59;100.00;100177.44;4950272;29;20291;-72
2022/11/04 02:35:10;;;;;;;0.80;0.80;;;;;;;11.67;100.00;100186.19;4930696;29;20242;-72
2022/11/04 02:37:47;;;;;;;0.80;0.80;;;;;;;11.65;100.00;100183.59;4931070;29;20208;-72
2022/11/04 02:40:24;;;;;;;0.60;0.60;;;;;;;11.68;100.00;100182.75;4943806;28;20211;-72
2022/11/04 02:42:58;;;;;;;1.00;1.00;;;;;;;11.69;100.00;100184.50;4958542;28;20208;-72
2022/11/04 02:45:33;;;;;;;0.90;0.90;;;;;;;11.55;100.00;100155.78;4950244;29;20217;-72
2022/11/04 02:48:04;;;;;;;0.90;0.90;;;;;;;11.71;100.00;100188.00;4961346;28;20193;-72
2022/11/04 02:50:34;;;;;;;0.93;0.93;;;;;;;11.69;100.00;100181.91;4969305;28;20765;-72
2022/11/04 02:53:07;;;;;;;0.80;0.80;;;;;;;11.70;100.00;100176.69;4967003;28;20210;-72
2022/11/04 02:55:39;;;;;;;1.08;1.08;;;;;;;11.63;100.00;100153.28;4954564;28;20230;-72
2022/11/04 02:58:12;;;;;;;0.90;0.90;;;;;;;11.70;100.00;100163.72;4968770;28;20702;-73
2022/11/04 03:00:43;;;;;;;0.70;0.70;;;;;;;11.69;100.00;100155.94;4949780;28;20207;-72
2022/11/04 03:03:14;;;;;;;1.10;1.10;;;;;;;11.63;100.00;100158.47;4988365;28;20303;-72
2022/11/04 03:05:46;;;;;;;0.80;0.80;;;;;;;11.12;100.00;100071.31;5050896;28;20227;-72
2022/11/04 03:08:18;;;;;;;0.90;0.90;;;;;;;11.56;100.00;100146.25;5045253;28;20211;-72
2022/11/04 03:10:51;;;;;;;0.85;0.85;;;;;;;11.47;100.00;100131.44;5110172;28;20913;-72
2022/11/04 03:13:22;;;;;;;0.90;0.90;;;;;;;11.58;100.00;100134.16;5099275;28;20200;-72
2022/11/04 03:15:54;;;;;;;1.02;1.02;;;;;;;11.52;100.00;100128.91;5104096;28;20209;-71
2022/11/04 03:18:30;;;;;;;1.00;1.00;;;;;;;11.54;100.00;100124.56;5099487;28;20676;-72
2022/11/04 03:21:01;;;;;;;0.82;0.82;;;;;;;11.51;100.00;100122.81;5087237;28;20201;-72
2022/11/04 03:23:28;;;;;;;0.90;0.90;;;;;;;11.19;100.00;100083.50;5095250;28;20197;-72
2022/11/04 03:26:01;;;;;;;0.93;0.93;;;;;;;11.41;100.00;100116.63;5094879;28;20568;-72
2022/11/04 03:28:39;;;;;;;0.90;0.90;;;;;;;11.22;100.00;100086.13;5098982;28;20573;-71
2022/11/04 03:31:17;;;;;;;0.90;0.90;;;;;;;11.39;100.00;100139.13;5098180;28;20636;-72
2022/11/04 03:33:48;;;;;;;0.98;0.98;;;;;;;11.42;100.00;100146.06;5093277;28;20232;-72
2022/11/04 03:36:16;;;;;;;0.80;0.80;;;;;;;11.30;100.00;100154.59;5105795;28;20194;-72
2022/11/04 03:38:42;;;;;;;0.80;0.80;;;;;;;11.11;100.00;100139.63;5104809;28;20202;-72
2022/11/04 03:41:15;;;;;;;1.00;1.00;;;;;;;11.08;100.00;100155.16;5094813;28;20218;-71
2022/11/04 03:43:42;;;;;;;1.00;1.00;;;;;;;10.80;100.00;100158.19;5094594;28;20248;-72
2022/11/04 03:46:11;;;;;;;3.78;3.45;;;;;;;10.94;100.00;100149.75;5093538;28;20286;-72
2022/11/04 03:48:38;;;;;;;1.40;1.30;;;;;;;10.87;100.00;100157.44;5099421;28;20198;-72
2022/11/04 03:51:05;;;;;;;0.80;0.80;;;;;;;10.82;100.00;100154.75;5093644;28;20212;-72
2022/11/04 03:53:32;;;;;;;0.80;0.80;;;;;;;10.87;100.00;100152.25;5101579;28;20198;-72
2022/11/04 03:56:25;;;;;;;0.90;0.90;;;;;;;10.91;100.00;100154.88;5113137;27;20194;-72
2022/11/04 03:59:06;;;;;;;0.90;0.90;;;;;;;10.90;100.00;100154.88;5110333;28;20613;-72
2022/11/04 04:01:48;;;;;;;1.13;1.05;;;;;;;10.87;100.00;100147.94;5112986;28;20194;-72
2022/11/04 04:04:20;;;;;;;0.80;0.80;;;;;;;10.73;100.00;100133.00;5096834;28;20222;-71
2022/11/04 04:06:51;;;;;;;0.90;0.90;;;;;;;10.56;100.00;100116.34;5111749;28;20688;-71
2022/11/04 04:09:22;;;;;;;0.90;0.90;;;;;;;10.81;100.00;100145.22;5076989;28;20206;-72
2022/11/04 04:11:55;;;;;;;0.98;0.98;;;;;;;10.87;100.00;100141.88;5105981;28;20205;-72
2022/11/04 04:14:39;;;;;;;0.80;0.80;;;;;;;10.74;100.00;100117.47;5110730;28;20228;-72
2022/11/04 04:17:15;;;;;;;0.90;0.90;;;;;;;10.84;100.00;100141.81;5108743;28;20193;-72
2022/11/04 04:19:46;;;;;;;0.90;0.90;;;;;;;10.78;100.00;100139.13;5092945;28;20197;-71
2022/11/04 04:22:18;;;;;;;1.15;1.05;;;;;;;10.61;100.00;100131.09;5103322;28;20197;-71
2022/11/04 04:27:44;;;;;;;0.90;0.90;;;;;;;10.67;100.00;100144.16;5040439;28;20706;-72
2022/11/04 04:30:13;;;;;;;0.80;0.80;;;;;;;10.70;100.00;100146.78;5036785;28;20200;-73
2022/11/04 04:32:44;;;;;;;1.20;1.20;;;;;;;10.75;100.00;100146.84;5042546;28;20605;-73
2022/11/04 04:46:12;;;;;;;0.90;0.90;;;;;;;10.44;100.00;100114.41;4957451;28;20745;-72
2022/11/04 04:48:40;;;;;;;1.00;1.00;;;;;;;10.36;100.00;100103.91;4904922;28;20202;-72
2022/11/04 04:51:07;;;;;;;0.80;0.80;;;;;;;10.18;100.00;100101.03;4942834;28;20191;-72
2022/11/04 04:53:33;;;;;;;0.80;0.80;;;;;;;10.38;100.00;100146.25;4970197;28;20201;-72
2022/11/04 04:56:00;;;;;;;1.48;1.02;;;;;;;10.28;100.00;100136.59;4970664;28;20261;-72
2022/11/04 04:58:27;;;;;;;1.02;1.00;;;;;;;10.35;100.00;100151.41;4936801;28;20202;-72
2022/11/04 05:00:54;;;;;;;1.05;0.90;;;;;;;10.21;100.00;100111.44;4952636;28;20195;-72
2022/11/04 05:03:20;;;;;;;0.90;0.90;;;;;;;10.42;100.00;100135.09;4987603;28;20192;-72
2022/11/04 05:05:49;;;;;;;1.10;1.00;;;;;;;10.32;100.00;100089.16;5048931;28;20242;-72
2022/11/04 05:08:15;;;;;;;0.90;0.90;;;;;;;10.53;100.00;100126.63;5048885;28;20222;-73
2022/11/04 05:10:42;;;;;;;1.48;1.10;;;;;;;10.43;100.00;100121.31;5047222;28;20294;-72
2022/11/04 05:13:28;;;;;;;0.90;0.90;;;;;;;10.51;100.00;100123.16;5043386;28;20200;-72
2022/11/04 05:15:55;;;;;;;1.60;1.08;;;;;;;10.51;100.00;100120.56;5079044;28;20590;-72
2022/11/04 05:18:23;;;;;;;0.90;0.90;;;;;;;10.54;100.00;100125.78;5091299;28;20197;-72
2022/11/04 05:20:51;;;;;;;0.90;0.90;;;;;;;10.73;100.00;100133.88;5098317;28;20193;-72
2022/11/04 05:23:18;;;;;;;0.98;0.98;;;;;;;10.73;100.00;100146.84;5093235;28;20693;-72
2022/11/04 05:25:44;;;;;;;1.05;1.00;;;;;;;10.72;100.00;100142.50;5101611;28;20224;-72
2022/11/04 05:28:11;;;;;;;1.20;1.10;;;;;;;10.84;100.00;100160.81;5109509;28;20209;-73
2022/11/04 05:30:39;;;;;;;0.82;0.82;;;;;;;10.75;100.00;100123.53;5101990;28;20198;-72
2022/11/04 05:33:06;;;;;;;1.65;1.10;;;;;;;10.85;100.00;100143.56;5097052;28;20211;-72
2022/11/04 05:35:33;;;;;;;0.88;0.88;;;;;;;11.09;100.00;100153.44;5110936;28;20771;-72
2022/11/04 05:38:01;;;;;;;2.83;1.20;;;;;;;11.20;100.00;100157.88;5096569;28;20198;-72
2022/11/04 05:40:28;;;;;;;1.45;1.23;;;;;;;11.17;100.00;100163.03;5042457;28;20195;-73
2022/11/04 05:42:58;;;;;;;1.50;1.40;;;;;;;11.36;100.00;100158.97;5091757;28;20270;-71
2022/11/04 05:45:24;;;;;;;2.08;1.10;;;;;;;11.08;100.00;100118.81;5089851;28;20209;-71
2022/11/04 05:47:57;;;;;;;1.23;0.95;;;;;;;11.40;100.00;100148.66;5047632;28;20213;-71
2022/11/04 05:50:24;;;;;;;0.95;0.90;;;;;;;11.32;100.00;100157.19;5089562;28;20217;-72
2022/11/04 05:52:51;;;;;;;0.95;0.93;;;;;;;11.42;100.00;100169.44;5073416;28;20210;-71
2022/11/04 05:55:19;;;;;;;0.85;0.85;;;;;;;11.71;100.00;100168.09;5078334;28;20234;-69
2022/11/04 05:57:45;;;;;;;1.02;0.95;;;;;;;11.71;100.00;100172.41;5091100;28;20308;-70
2022/11/04 06:00:13;;;;;;;1.30;1.20;;;;;;;11.82;100.00;100182.09;5089296;28;20657;-70
2022/11/04 06:02:40;;;;;;;0.68;0.68;;;;;;;11.83;100.00;100177.78;5071383;28;20198;-70
2022/11/04 06:05:08;;;;;;;0.98;0.98;;;;;;;11.91;100.00;100181.34;5088765;28;20241;-70
2022/11/04 06:07:35;;;;;;;1.00;1.00;;;;;;;11.96;100.00;100169.25;5075112;28;20263;-74
2022/11/04 06:10:02;;;;;;;0.70;0.70;;;;;;;11.97;100.00;100159.72;5093120;28;20681;-72
2022/11/04 06:12:30;;;;;;;0.98;0.98;;;;;;;12.03;100.00;100159.78;5066184;28;20202;-73
2022/11/04 06:14:57;;;;;;;0.80;0.80;;;;;;;12.04;100.00;100183.19;5091347;28;20222;-71
2022/11/04 06:17:24;;;;;;;0.82;0.82;;;;;;;12.10;100.00;100183.25;5090444;28;20213;-71
2022/11/04 06:19:50;;;;;;;0.88;0.85;;;;;;;12.16;100.00;100178.16;5090445;28;20201;-72
2022/11/04 06:22:19;;;;;;;0.80;0.80;;;;;;;12.41;100.00;100174.88;5095512;28;20689;-71
2022/11/04 06:24:46;;;;;;;1.08;1.08;;;;;;;12.31;100.00;100149.66;5087631;28;20259;-72
2022/11/04 06:27:13;;;;;;;1.63;1.52;;;;;;;12.40;100.00;100177.50;5079102;28;20206;-72
2022/11/04 06:29:41;;;;;;;1.13;1.13;;;;;;;12.37;100.00;100190.47;5084589;28;20203;-71
2022/11/04 06:32:08;;;;;;;1.27;1.00;;;;;;;12.45;100.00;100195.75;5080527;28;20226;-72
2022/11/04 06:34:35;;;;;;;1.33;1.23;;;;;;;12.56;100.00;100194.09;5057277;28;20223;-73
2022/11/04 06:37:03;;;;;;;0.80;0.80;;;;;;;12.34;100.00;100193.03;5089335;28;20202;-72
2022/11/04 06:39:29;;;;;;;0.90;0.90;;;;;;;12.25;100.00;100188.63;5083495;28;20193;-72
2022/11/04 06:41:57;;;;;;;0.80;0.80;;;;;;;12.40;100.00;100183.56;5085438;28;20201;-72
2022/11/04 06:44:24;;;;;;;1.10;1.00;;;;;;;12.61;100.00;100200.22;5090865;28;20199;-72
2022/11/04 06:46:52;;;;;;;0.98;0.98;;;;;;;12.78;100.00;100193.41;5091587;28;20296;-72
2022/11/04 06:49:20;;;;;;;1.08;0.95;;;;;;;12.91;100.00;100187.47;5090960;28;20202;-71
2022/11/04 06:51:48;;;;;;;1.13;0.90;;;;;;;12.89;100.00;100196.97;5087826;28;20597;-71
2022/11/04 06:54:15;;;;;;;0.80;0.80;;;;;;;12.95;100.00;100196.16;5056480;28;20215;-72
2022/11/04 06:56:42;;;;;;;0.95;0.90;;;;;;;12.88;100.00;100184.81;5092708;28;20683;-72
2022/11/04 06:59:14;;;;;;;0.93;0.90;;;;;;;12.88;100.00;100182.22;5092595;28;20198;-72
2022/11/04 07:01:40;;;;;;;1.40;1.08;;;;;;;12.96;100.00;100193.56;5093233;28;20210;-71
2022/11/04 07:04:09;;;;;;;1.20;1.10;;;;;;;12.85;100.00;100203.88;5076234;28;20368;-72
2022/11/04 07:06:36;;;;;;;1.77;1.13;;;;;;;12.70;100.00;100205.50;5082573;28;20195;-71
2022/11/04 07:09:04;;;;;;;0.85;0.85;;;;;;;12.75;100.00;100198.59;5086296;28;20735;-71
2022/11/04 07:11:32;;;;;;;1.15;1.15;;;;;;;12.74;100.00;100189.91;5083706;28;20202;-71
2022/11/04 07:13:59;;;;;;;0.95;0.90;;;;;;;12.82;100.00;100192.56;5073053;28;20705;-73
2022/11/04 07:16:26;;;;;;;0.80;0.80;;;;;;;12.92;100.00;100199.59;5082781;28;20241;-71
2022/11/04 07:18:54;;;;;;;1.00;0.90;;;;;;;12.92;100.00;100190.06;5085224;28;20206;-72
2022/11/04 07:21:22;;;;;;;0.95;0.82;;;;;;;13.00;100.00;100182.31;5088409;28;20578;-71
2022/11/04 07:23:49;;;;;;;1.90;1.17;;;;;;;12.34;100.00;100105.50;5046952;28;20594;-72
2022/11/04 07:26:16;;;;;;;3.20;1.65;;;;;;;12.73;100.00;100187.31;5084173;28;20205;-72
2022/11/04 07:28:43;;;;;;;1.25;1.00;;;;;;;12.59;100.00;100152.53;5092033;28;20198;-73
2022/11/04 07:31:12;;;;;;;0.90;0.90;;;;;;;12.70;100.00;100171.69;5081428;28;20603;-73
2022/11/04 07:33:39;;;;;;;2.28;2.08;;;;;;;12.75;100.00;100170.84;5090102;28;20432;-72
2022/11/04 07:36:07;;;;;;;1.30;0.93;;;;;;;12.84;100.00;100162.25;5087241;28;20221;-73
2022/11/04 07:38:35;;;;;;;1.33;0.95;;;;;;;13.02;100.00;100167.56;5062223;28;20209;-72
2022/11/04 07:41:02;;;;;;;1.50;1.40;;;;;;;13.10;100.00;100172.84;5074150;28;20597;-73
2022/11/04 07:43:29;;;;;;;1.48;1.00;;;;;;;13.04;100.00;100165.84;5089896;28;20191;-73
2022/11/04 07:46:03;;;;;;;0.80;0.80;;;;;;;13.18;100.00;100155.56;5092284;28;20266;-72
2022/11/04 07:48:30;;;;;;;1.92;1.00;;;;;;;13.01;100.00;100152.81;5092339;28;20201;-72
2022/11/04 07:50:58;;;;;;;1.17;0.88;;;;;;;13.28;100.00;100153.00;5071500;28;20263;-72
2022/11/04 07:53:25;;;;;;;2.17;1.20;;;;;;;13.36;100.00;100150.44;5085245;28;20206;-72
2022/11/04 07:55:53;;;;;;;2.13;1.13;;;;;;;13.56;100.00;100133.16;5071846;28;20251;-73
2022/11/04 07:58:21;;;;;;;0.90;0.90;;;;;;;13.48;100.00;100113.16;5082544;28;20206;-73
2022/11/04 08:00:48;;;;;;;0.90;0.90;;;;;;;13.78;100.00;100144.50;5077440;28;20610;-73
2022/11/04 08:03:15;;;;;;;1.25;1.20;;;;;;;13.69;100.00;100128.88;5092593;28;20210;-72
2022/11/04 08:05:42;;;;;;;1.90;1.80;;;;;;;13.86;100.00;100148.91;5088757;28;20602;-72
2022/11/04 08:08:08;;;;;;;2.00;1.30;;;;;;;13.97;100.00;100148.94;5090452;28;20194;-72
2022/11/04 08:10:35;;;;;;;1.35;1.00;;;;;;;13.49;100.00;100063.66;5090219;28;20198;-72
2022/11/04 08:13:04;;;;;;;1.33;1.00;;;;;;;13.65;100.00;100142.75;5085059;28;20599;-72
2022/11/04 08:15:30;;;;;;;1.10;1.00;;;;;;;13.55;100.00;100144.47;5037171;28;20230;-72
2022/11/04 08:17:57;;;;;;;1.58;1.25;;;;;;;13.69;100.00;100134.97;5036180;28;20199;-72
2022/11/04 08:20:24;;;;;;;1.50;1.00;;;;;;;13.87;100.00;100108.94;5082820;28;20693;-72
2022/11/04 08:22:51;;;;;;;2.45;1.13;;;;;;;14.11;100.00;100104.63;5090725;28;20206;-72
2022/11/04 08:25:17;;;;;;;0.80;0.80;;;;;;;14.29;100.00;100123.78;5091895;28;20209;-72
2022/11/04 08:27:44;;;;;;;1.38;1.00;;;;;;;14.53;100.00;100120.31;5077863;28;20210;-72
2022/11/04 08:30:13;;;;;;;1.20;1.10;;;;;;;14.77;100.00;100120.28;5091229;28;20201;-72
2022/11/04 08:32:39;;;;;;;0.80;0.80;;;;;;;14.78;100.00;100122.03;5091070;28;20209;-73
2022/11/04 08:35:08;;;;;;;2.60;1.92;;;;;;;14.80;100.00;100101.16;5041848;28;20283;-72
2022/11/04 08:37:34;;;;;;;1.15;1.00;;;;;;;14.91;100.00;100119.41;5078668;28;20206;-70
2022/11/04 08:40:02;;;;;;;1.38;1.00;;;;;;;15.03;100.00;100115.03;5089328;28;20205;-71
2022/11/04 08:42:28;;;;;;;1.13;1.02;;;;;;;15.15;100.00;100116.75;5090695;28;20231;-72
2022/11/04 08:44:55;;;;;;;1.90;1.10;;;;;;;15.24;100.00;100114.97;5055289;28;20190;-72
2022/11/04 08:47:23;;;;;;;1.48;1.02;;;;;;;14.77;100.00;100033.28;5091268;28;20205;-72
2022/11/04 08:49:50;;;;;;;1.10;1.00;;;;;;;15.23;100.00;100117.59;5091518;28;20190;-72
2022/11/04 08:52:17;;;;;;;4.13;2.55;;;;;;;15.28;100.00;100114.06;5091282;28;20202;-71
2022/11/04 08:54:44;;;;;;;1.63;1.52;;;;;;;15.32;100.00;100118.41;5072504;28;20290;-72
2022/11/04 08:57:11;;;;;;;0.80;0.80;;;;;;;15.39;100.00;100109.69;5091086;28;20237;-72
2022/11/04 08:59:37;;;;;;;1.35;1.10;;;;;;;15.58;100.00;100104.41;5077933;28;20198;-72
2022/11/04 09:02:04;;;;;;;1.00;0.95;;;;;;;15.33;100.00;100028.72;5088483;28;20190;-74
2022/11/04 09:04:32;;;;;;;1.00;0.90;;;;;;;16.01;100.00;100108.53;5070846;28;20223;-72
2022/11/04 09:07:02;;;;;;;0.85;0.85;;;;;;;16.09;100.00;100106.69;5077620;28;20213;-71
2022/11/04 09:09:29;;;;;;;2.55;1.33;;;;;;;16.09;96.31;100108.44;5090965;28;20213;-71
2022/11/04 09:11:56;;;;;;;1.10;1.00;;;;;;;16.19;96.20;100104.91;5091033;28;20201;-71
2022/11/04 09:14:23;;;;;;;0.82;0.82;;;;;;;16.27;98.42;100101.34;5091001;28;20212;-72
2022/11/04 09:17:09;;;;;;;0.73;0.73;;;;;;;16.19;92.16;100069.16;5090859;28;20300;-73
2022/11/04 09:19:37;;;;;;;0.93;0.80;;;;;;;16.44;91.94;100095.13;5090956;28;20267;-72
2022/11/04 09:22:04;;;;;;;1.70;1.45;;;;;;;16.32;92.05;100090.84;5055221;28;20190;-73
2022/11/04 09:24:30;;;;;;;1.02;0.93;;;;;;;16.50;91.26;100076.72;5090702;28;20202;-73
2022/11/04 09:26:57;;;;;;;0.70;0.70;;;;;;;16.65;90.37;100074.88;5090427;28;20202;-73
2022/11/04 09:29:24;;;;;;;1.10;1.00;;;;;;;16.25;89.88;99993.22;5091031;28;20513;-73
2022/11/04 09:31:51;;;;;;;1.15;1.10;;;;;;;16.86;89.59;100079.03;5076042;28;20233;-73
2022/11/04 09:34:17;;;;;;;1.20;1.10;;;;;;;16.73;89.07;100077.44;5090877;28;20214;-73
2022/11/04 09:36:46;;;;;;;1.48;1.38;;;;;;;16.89;89.62;100062.41;5090841;28;20313;-73
2022/11/04 09:39:13;;;;;;;0.95;0.90;;;;;;;16.77;89.50;100042.44;5090763;28;20268;-73
2022/11/04 09:41:55;;;;;;;0.80;0.80;;;;;;;16.86;88.51;100031.88;5079131;28;20563;-73
2022/11/04 09:44:28;;;;;;;1.13;0.90;;;;;;;17.02;88.34;100056.13;5076717;28;20198;-72
2022/11/04 09:46:59;;;;;;;1.20;1.00;;;;;;;17.22;86.98;100062.91;5091079;28;20228;-73
2022/11/04 09:49:28;;;;;;;0.80;0.80;;;;;;;16.73;87.59;99983.16;5090545;28;20201;-73
2022/11/04 09:51:59;;;;;;;1.10;1.10;;;;;;;17.19;88.00;100055.03;5090725;28;20648;-72
2022/11/04 09:54:32;;;;;;;1.10;1.00;;;;;;;17.34;86.91;100049.63;5090484;28;20198;-72
2022/11/04 09:57:01;;;;;;;1.35;0.90;;;;;;;17.45;85.52;100053.84;5090344;28;20705;-72
2022/11/04 09:59:32;;;;;;;1.50;1.33;;;;;;;17.58;85.43;100052.84;5090605;28;20229;-71
2022/11/04 10:02:18;;;;;;;1.05;1.05;;;;;;;17.71;83.33;100015.06;5075960;28;20198;-70
2022/11/04 10:04:59;;;;;;;1.30;1.20;;;;;;;18.13;82.13;100034.50;5090046;28;20226;-70
2022/11/04 10:07:41;;;;;;;1.13;0.90;;;;;;;18.35;79.27;100030.63;5090417;28;20608;-70
2022/11/04 10:10:17;;;;;;;1.42;1.02;;;;;;;18.44;79.46;100021.75;5041792;28;20198;-70
2022/11/04 10:13:00;;;;;;;0.90;0.90;;;;;;;18.34;78.61;100014.00;5089907;28;20693;-70
2022/11/04 10:15:58;;;;;;;1.00;1.00;;;;;;;18.62;77.69;100014.41;5090097;28;20223;-71
2022/11/04 10:18:36;;;;;;;1.08;1.00;;;;;;;18.74;75.80;100008.06;5090069;28;20210;-70
2022/11/04 10:21:11;;;;;;;0.90;0.90;;;;;;;18.79;75.32;99986.06;5090140;28;21407;-70
2022/11/04 10:23:44;;;;;;;1.30;1.20;;;;;;;19.26;75.34;100006.09;5090240;28;20201;-70
2022/11/04 10:26:16;;;;;;;0.80;0.80;;;;;;;19.56;72.05;100001.97;5090291;28;20293;-71
2022/11/04 10:28:46;;;;;;;2.33;1.35;;;;;;;19.60;70.91;99981.72;5075828;28;20238;-69
2022/11/04 10:31:15;;;;;;;1.33;1.00;;;;;;;19.65;68.55;99995.63;5089922;28;20198;-70
2022/11/04 10:33:47;;;;;;;0.90;0.85;;;;;;;19.11;70.05;99988.03;5054081;28;20209;-70
2022/11/04 10:36:15;;;;;;;1.05;1.05;;;;;;;19.07;70.66;99977.59;5090001;28;20214;-70
2022/11/04 10:38:46;;;;;;;1.38;1.00;;;;;;;19.30;69.94;99981.47;5089934;28;20691;-69
2022/11/04 10:41:23;;;;;;;0.90;0.90;;;;;;;19.59;68.35;99969.44;5075788;28;20205;-70
2022/11/04 10:43:52;;;;;;;1.27;1.27;;;;;;;19.42;68.98;99932.16;5090170;28;20208;-70
2022/11/04 10:46:36;;;;;;;1.77;1.55;;;;;;;19.88;65.54;99964.34;5089956;28;20210;-70
2022/11/04 10:49:18;;;;;;;1.00;1.00;;;;;;;19.69;66.70;99955.19;5090183;28;20738;-70
2022/11/04 10:51:45;;;;;;;0.93;0.93;;;;;;;19.65;67.64;99954.41;5090078;28;20552;-70
2022/11/04 10:54:13;;;;;;;2.38;1.67;;;;;;;20.00;65.12;99950.91;5089739;28;20206;-70
2022/11/04 10:56:42;;;;;;;0.80;0.80;;;;;;;20.31;64.02;99944.84;5089890;28;20221;-72
2022/11/04 10:59:23;;;;;;;1.17;1.08;;;;;;;20.26;62.74;99932.63;5090092;28;20231;-71
2022/11/04 11:01:51;;;;;;;1.17;1.08;;;;;;;19.85;62.41;99911.81;5077197;28;20658;-71
2022/11/04 11:04:27;;;;;;;1.25;1.15;;;;;;;19.86;63.95;99936.34;5089871;28;20295;-71
2022/11/04 11:06:55;;;;;;;1.00;1.00;;;;;;;19.99;65.05;99928.09;5089818;28;20259;-71
2022/11/04 11:09:28;;;;;;;1.10;1.00;;;;;;;19.92;62.94;99929.16;5054250;28;20193;-71
2022/11/04 11:11:57;;;;;;;1.10;1.00;;;;;;;20.08;63.05;99922.59;5054886;28;20205;-71
2022/11/04 11:14:34;;;;;;;0.90;0.90;;;;;;;20.17;62.57;99905.69;5089630;28;20194;-72
2022/11/04 11:17:20;;;;;;;0.80;0.80;;;;;;;20.24;61.18;99921.31;5089396;28;20221;-71
2022/11/04 11:19:53;;;;;;;0.80;0.80;;;;;;;20.39;60.87;99927.97;5089688;28;20210;-72
2022/11/04 11:22:32;;;;;;;1.13;1.13;;;;;;;20.36;60.72;99917.50;5089567;28;20198;-70
2022/11/04 11:25:22;;;;;;;2.55;2.35;;;;;;;20.38;60.49;99902.50;5090579;28;20224;-70
2022/11/04 11:27:51;;;;;;;1.27;1.08;;;;;;;20.48;60.26;99911.00;5093464;28;20202;-70
2022/11/04 11:30:25;;;;;;;1.13;1.02;;;;;;;20.65;59.70;99908.78;5093198;28;20193;-70
2022/11/04 11:32:58;;;;;;;0.93;0.93;;;;;;;20.76;60.18;99909.34;5057656;28;20205;-70
2022/11/04 11:35:32;;;;;;;0.80;0.80;;;;;;;20.45;59.72;99877.72;5093188;28;20202;-72
2022/11/04 11:38:04;;;;;;;0.70;0.70;;;;;;;20.66;61.24;99897.31;5093006;28;20236;-72
2022/11/04 11:40:37;;;;;;;1.13;1.02;;;;;;;20.78;59.58;99900.47;5092889;28;20194;-69
2022/11/04 11:43:05;;;;;;;1.42;1.33;;;;;;;20.29;59.82;99873.81;5092995;28;20222;-71
2022/11/04 11:45:33;;;;;;;0.95;0.95;;;;;;;20.57;60.04;99884.44;5092943;28;20205;-71
2022/11/04 11:48:00;;;;;;;1.38;1.35;;;;;;;20.73;59.77;99888.34;5092731;28;20201;-72
2022/11/04 11:50:33;;;;;;;0.82;0.82;;;;;;;20.90;59.46;99872.91;5092796;28;20201;-72
2022/11/04 11:53:16;;;;;;;0.88;0.88;;;;;;;21.10;58.02;99853.81;5092936;28;20240;-71
2022/11/04 11:55:54;;;;;;;0.98;0.90;;;;;;;20.74;58.60;99861.94;5092676;28;20690;-71
2022/11/04 11:58:32;;;;;;;1.02;1.02;;;;;;;20.59;59.15;99854.50;5092940;28;20193;-71
2022/11/04 12:01:04;;;;;;;0.88;0.88;;;;;;;20.36;59.92;99827.09;5092800;28;20198;-71
2022/11/04 12:03:35;;;;;;;1.92;1.10;;;;;;;20.76;59.16;99854.00;5073305;28;20222;-71
2022/11/04 12:06:24;;;;;;;1.38;1.30;;;;;;;20.65;58.14;99845.56;5092519;28;20653;-72
2022/11/04 12:09:20;;;;;;;0.90;0.90;;;;;;;20.84;57.25;99841.44;5049604;28;20207;-72